Time;durP1;ratioP1;P1;durP2;ratioP2;P2;SDS_P1;SDS_P2;PMS_P1;PMS_P2;Temp;Humidity;BMP_temperature;BMP_pressure;BME280_temperature;BME280_humidity;BME280_pressure;Samples;Min_cycle;Max_cycle;Signal;HPM_P1;HPM_P2
2022/11/26 00:01:18;;;;;;;5.78;5.18;;;2.30;99.90;;;;;;4986369;28;20092;-64
2022/11/26 00:03:45;;;;;;;11.25;6.38;;;2.30;99.90;;;;;;4984383;28;20076;-64
2022/11/26 00:06:32;;;;;;;8.48;5.97;;;2.30;99.90;;;;;;4982865;28;20050;-69
2022/11/26 00:09:00;;;;;;;7.15;5.40;;;2.30;99.90;;;;;;4983969;28;20515;-65
2022/11/26 00:11:27;;;;;;;8.27;6.00;;;2.30;99.90;;;;;;4992344;28;20068;-64
2022/11/26 00:13:54;;;;;;;9.10;6.25;;;2.30;99.90;;;;;;4982287;28;20169;-64
2022/11/26 00:16:21;;;;;;;5.38;4.13;;;2.30;99.90;;;;;;4984591;28;20104;-67
2022/11/26 00:18:48;;;;;;;4.95;4.25;;;2.30;99.90;;;;;;4983077;28;20061;-67
2022/11/26 00:21:24;;;;;;;6.18;4.22;;;2.30;99.90;;;;;;4986170;28;20054;-63
2022/11/26 00:23:52;;;;;;;5.68;4.13;;;2.30;99.90;;;;;;5001599;28;20046;-66
2022/11/26 00:26:21;;;;;;;5.82;4.05;;;2.30;99.90;;;;;;4981345;28;20137;-68
2022/11/26 00:28:55;;;;;;;4.45;3.60;;;2.30;99.90;;;;;;4989955;28;20140;-64
2022/11/26 00:31:22;;;;;;;7.88;4.45;;;2.30;99.90;;;;;;4985553;28;22177;-64
2022/11/26 00:33:49;;;;;;;3.95;3.50;;;2.30;99.90;;;;;;4985995;28;20099;-65
2022/11/26 00:36:26;;;;;;;5.57;4.30;;;2.30;99.90;;;;;;4983751;28;20053;-63
2022/11/26 00:39:22;;;;;;;5.93;4.28;;;2.30;99.90;;;;;;4985482;28;20465;-65
2022/11/26 00:41:51;;;;;;;8.00;5.43;;;2.30;99.90;;;;;;4982812;28;20470;-64
2022/11/26 00:44:23;;;;;;;10.45;5.45;;;2.30;99.90;;;;;;4982343;28;20049;-64
2022/11/26 00:46:50;;;;;;;8.20;5.65;;;2.30;99.90;;;;;;4983445;28;20052;-65
2022/11/26 00:49:19;;;;;;;7.18;5.38;;;2.30;99.90;;;;;;4983463;28;20073;-67
2022/11/26 00:51:46;;;;;;;7.28;5.60;;;2.30;99.90;;;;;;4989144;28;20046;-65
2022/11/26 00:54:17;;;;;;;5.75;3.83;;;2.30;99.90;;;;;;4986302;28;20140;-65
2022/11/26 00:56:44;;;;;;;;;;;2.30;99.90;;;;;;4998070;28;20077;-65
2022/11/26 00:59:13;;;;;;;4.63;3.78;;;2.30;99.90;;;;;;4991319;28;20693;-64
2022/11/26 01:01:40;;;;;;;5.38;4.05;;;2.30;99.90;;;;;;4981654;28;20445;-66
2022/11/26 01:04:07;;;;;;;4.60;3.10;;;2.30;99.90;;;;;;4987389;28;20053;-65
2022/11/26 01:06:42;;;;;;;4.07;3.20;;;2.30;99.90;;;;;;4981675;28;21520;-65
2022/11/26 01:09:16;;;;;;;6.03;3.42;;;2.30;99.90;;;;;;4987249;28;20126;-64
2022/11/26 01:11:43;;;;;;;4.03;3.63;;;2.30;99.90;;;;;;4983476;28;20513;-63
2022/11/26 01:14:18;;;;;;;5.50;3.60;;;2.30;99.90;;;;;;4984943;28;20050;-63
2022/11/26 01:16:46;;;;;;;9.38;3.80;;;2.30;99.90;;;;;;4981720;28;20129;-64
2022/11/26 01:19:15;;;;;;;4.82;4.25;;;2.30;99.90;;;;;;4978944;28;20054;-64
2022/11/26 01:21:42;;;;;;;3.72;3.20;;;2.30;99.90;;;;;;4991965;28;20057;-63
2022/11/26 01:24:09;;;;;;;4.68;3.80;;;2.30;99.90;;;;;;4985459;28;20046;-67
2022/11/26 01:26:39;;;;;;;3.95;3.55;;;2.30;99.90;;;;;;4981825;28;20042;-65
2022/11/26 01:29:08;;;;;;;3.92;3.25;;;2.30;99.90;;;;;;4986800;28;20112;-65
2022/11/26 01:31:35;;;;;;;3.22;2.92;;;2.30;99.90;;;;;;4987489;28;20047;-65
2022/11/26 01:34:02;;;;;;;2.42;2.20;;;2.30;99.90;;;;;;4988712;28;20144;-65
2022/11/26 01:36:29;;;;;;;3.58;2.75;;;2.30;99.90;;;;;;4986739;28;20042;-63
2022/11/26 01:39:00;;;;;;;3.55;3.25;;;2.30;99.90;;;;;;4988853;28;20133;-63
2022/11/26 01:41:48;;;;;;;3.65;3.33;;;2.30;99.90;;;;;;4990883;28;20452;-65
2022/11/26 01:44:23;;;;;;;5.85;3.03;;;2.30;99.90;;;;;;4987500;28;20050;-64
2022/11/26 01:46:51;;;;;;;3.15;2.80;;;2.30;99.90;;;;;;4986307;28;20080;-64
2022/11/26 01:49:24;;;;;;;3.70;2.97;;;2.30;99.90;;;;;;4989020;28;20140;-66
2022/11/26 01:52:10;;;;;;;2.85;2.55;;;2.30;99.90;;;;;;4985642;28;20042;-64
2022/11/26 01:54:40;;;;;;;3.60;3.30;;;2.30;99.90;;;;;;4989201;28;20050;-65
2022/11/26 01:57:28;;;;;;;3.67;3.05;;;2.30;99.90;;;;;;4994437;28;20081;-63
2022/11/26 02:00:00;;;;;;;4.40;3.25;;;2.30;99.90;;;;;;4986372;28;20053;-63
2022/11/26 02:02:39;;;;;;;4.55;2.75;;;2.30;99.90;;;;;;4985164;28;20443;-64
2022/11/26 02:05:43;;;;;;;4.35;3.38;;;2.30;99.90;;;;;;4985709;28;20078;-65
2022/11/26 02:08:11;;;;;;;4.70;3.45;;;2.30;99.90;;;;;;4973827;28;20146;-65
2022/11/26 02:10:38;;;;;;;4.25;3.60;;;2.30;99.90;;;;;;4984217;28;20042;-65
2022/11/26 02:13:05;;;;;;;4.80;3.83;;;2.30;99.90;;;;;;4989653;28;20569;-64
2022/11/26 02:15:42;;;;;;;4.63;3.47;;;2.30;99.90;;;;;;4989934;28;20129;-67
2022/11/26 02:18:09;;;;;;;4.20;3.80;;;2.30;99.90;;;;;;4986103;28;20145;-63
2022/11/26 02:20:54;;;;;;;4.18;3.45;;;2.30;99.90;;;;;;4986257;28;20137;-68
2022/11/26 02:23:33;;;;;;;2.75;2.55;;;2.30;99.90;;;;;;4981793;28;20054;-65
2022/11/26 02:26:37;;;;;;;3.67;3.35;;;2.30;99.90;;;;;;4986614;28;20045;-69
2022/11/26 02:29:42;;;;;;;3.95;2.95;;;2.30;99.90;;;;;;4982271;28;20073;-63
2022/11/26 02:32:18;;;;;;;4.55;3.00;;;2.30;99.90;;;;;;4984085;28;20105;-63
2022/11/26 02:34:57;;;;;;;4.20;3.80;;;2.30;99.90;;;;;;4983045;28;20135;-65
2022/11/26 02:37:32;;;;;;;5.18;3.85;;;2.30;99.90;;;;;;4981934;28;20058;-67
2022/11/26 02:39:59;;;;;;;4.80;3.58;;;2.30;99.90;;;;;;4981022;28;20529;-63
2022/11/26 02:42:34;;;;;;;3.97;3.58;;;2.30;99.90;;;;;;4982036;28;20078;-65
2022/11/26 02:45:09;;;;;;;4.03;3.60;;;2.30;99.90;;;;;;4987390;28;20138;-64
2022/11/26 02:47:39;;;;;;;4.35;3.70;;;2.30;99.90;;;;;;4980316;28;20054;-64
2022/11/26 02:50:12;;;;;;;3.78;3.30;;;2.20;99.90;;;;;;4981589;28;20143;-64
2022/11/26 02:52:41;;;;;;;4.80;3.40;;;2.20;99.90;;;;;;4977763;28;20074;-64
2022/11/26 02:55:11;;;;;;;4.15;3.63;;;2.20;99.90;;;;;;4981003;28;20206;-65
2022/11/26 02:57:45;;;;;;;3.95;3.50;;;2.20;99.90;;;;;;4984755;28;20074;-64
2022/11/26 03:00:14;;;;;;;6.10;5.10;;;2.20;99.90;;;;;;4989132;28;20900;-63
2022/11/26 03:02:49;;;;;;;3.72;3.38;;;2.30;99.90;;;;;;4993527;28;20050;-65
2022/11/26 03:05:18;;;;;;;4.15;3.30;;;2.20;99.90;;;;;;4981124;28;20050;-68
2022/11/26 03:07:48;;;;;;;3.92;3.53;;;2.30;99.90;;;;;;4982684;28;20141;-67
2022/11/26 03:10:15;;;;;;;6.28;3.90;;;2.30;99.90;;;;;;4981698;28;20498;-66
2022/11/26 03:12:42;;;;;;;4.65;3.50;;;2.30;99.90;;;;;;4985572;28;20056;-68
2022/11/26 03:15:10;;;;;;;4.53;3.97;;;2.30;99.90;;;;;;4985263;28;20228;-66
2022/11/26 03:17:37;;;;;;;4.72;3.92;;;2.30;99.90;;;;;;4984159;28;20488;-63
2022/11/26 03:20:04;;;;;;;3.45;3.15;;;2.20;99.90;;;;;;5003555;28;20662;-64
2022/11/26 03:22:31;;;;;;;4.85;3.78;;;2.30;99.90;;;;;;4986221;28;20050;-63
2022/11/26 03:24:58;;;;;;;3.95;3.28;;;2.30;99.90;;;;;;4990905;28;20133;-64
2022/11/26 03:27:25;;;;;;;3.47;3.15;;;2.30;99.90;;;;;;4985351;28;20129;-65
2022/11/26 03:29:52;;;;;;;4.32;3.92;;;2.30;99.90;;;;;;4984453;28;20508;-64
2022/11/26 03:32:19;;;;;;;4.00;3.50;;;2.30;99.90;;;;;;4978981;28;20134;-63
2022/11/26 03:34:46;;;;;;;4.22;3.72;;;2.30;99.90;;;;;;4987184;28;20050;-63
2022/11/26 03:37:13;;;;;;;4.15;3.55;;;2.30;99.90;;;;;;4987069;28;20495;-63
2022/11/26 03:39:40;;;;;;;6.43;4.20;;;2.30;99.90;;;;;;4990542;28;20153;-63
2022/11/26 03:42:07;;;;;;;5.05;4.53;;;2.30;99.90;;;;;;4985598;28;20069;-63
2022/11/26 03:44:35;;;;;;;5.38;4.88;;;2.30;99.90;;;;;;4988462;28;20132;-63
2022/11/26 03:47:02;;;;;;;4.80;4.20;;;2.30;99.90;;;;;;4986745;28;20058;-63
2022/11/26 03:49:29;;;;;;;6.30;4.70;;;2.30;99.90;;;;;;4984148;28;20050;-65
2022/11/26 03:51:56;;;;;;;5.65;4.82;;;2.30;99.90;;;;;;4981571;28;20289;-65
2022/11/26 03:54:23;;;;;;;7.25;5.45;;;2.30;99.90;;;;;;4982119;28;20065;-63
2022/11/26 03:56:50;;;;;;;4.97;4.47;;;2.30;99.90;;;;;;4987135;28;20158;-64
2022/11/26 03:59:17;;;;;;;5.40;4.72;;;2.30;99.90;;;;;;4984135;28;20116;-65
2022/11/26 04:01:44;;;;;;;5.45;4.50;;;2.30;99.90;;;;;;4982156;28;20059;-66
2022/11/26 04:04:11;;;;;;;5.22;4.50;;;2.30;99.90;;;;;;4986670;28;20105;-66
2022/11/26 04:06:38;;;;;;;5.28;4.43;;;2.30;99.90;;;;;;4979594;28;20064;-65
2022/11/26 04:09:05;;;;;;;5.93;4.47;;;2.30;99.90;;;;;;4990419;28;20136;-65
2022/11/26 04:11:32;;;;;;;7.85;4.65;;;2.30;99.90;;;;;;4982159;28;20385;-63
2022/11/26 04:13:59;;;;;;;5.35;4.47;;;2.40;99.90;;;;;;4979623;28;20058;-65
2022/11/26 04:16:26;;;;;;;6.30;4.32;;;2.30;99.90;;;;;;4999903;28;20141;-68
2022/11/26 04:18:53;;;;;;;5.32;4.00;;;2.30;99.90;;;;;;4988139;28;20527;-64
2022/11/26 04:21:19;;;;;;;6.90;4.35;;;2.30;99.90;;;;;;4987355;28;20365;-63
2022/11/26 04:23:47;;;;;;;4.32;3.92;;;2.30;99.90;;;;;;4987294;28;20507;-67
2022/11/26 04:26:14;;;;;;;5.07;4.32;;;2.30;99.90;;;;;;4985877;28;20039;-66
2022/11/26 04:28:42;;;;;;;5.43;4.35;;;2.30;99.90;;;;;;4982329;28;20037;-64
2022/11/26 04:31:08;;;;;;;4.93;4.32;;;2.30;99.90;;;;;;4978694;28;20154;-65
2022/11/26 04:33:35;;;;;;;5.15;4.22;;;2.30;99.90;;;;;;4980364;28;20054;-65
2022/11/26 04:36:03;;;;;;;8.02;5.85;;;2.30;99.90;;;;;;4980334;28;20051;-64
2022/11/26 04:38:30;;;;;;;5.95;5.40;;;2.30;99.90;;;;;;4981335;28;20140;-65
2022/11/26 04:40:57;;;;;;;5.88;4.95;;;2.30;99.90;;;;;;4998864;28;20973;-64
2022/11/26 04:43:24;;;;;;;7.60;4.40;;;2.30;99.90;;;;;;4985106;28;20096;-64
2022/11/26 04:45:50;;;;;;;6.82;4.90;;;2.30;99.90;;;;;;4996922;28;20060;-67
2022/11/26 04:48:19;;;;;;;6.22;4.93;;;2.30;99.90;;;;;;4982732;28;20077;-64
2022/11/26 04:50:48;;;;;;;5.80;4.65;;;2.30;99.90;;;;;;4983248;28;20046;-66
2022/11/26 04:53:15;;;;;;;5.60;4.57;;;2.30;99.90;;;;;;4980953;28;20051;-64
2022/11/26 04:55:43;;;;;;;5.03;4.53;;;2.30;99.90;;;;;;4986894;28;20141;-63
2022/11/26 04:58:10;;;;;;;7.05;4.35;;;2.30;99.90;;;;;;4980468;28;20074;-63
2022/11/26 05:00:37;;;;;;;7.97;5.78;;;2.30;99.90;;;;;;4980009;28;20105;-64
2022/11/26 05:03:05;;;;;;;8.55;5.65;;;2.30;99.90;;;;;;4981236;28;20050;-65
2022/11/26 05:05:32;;;;;;;6.38;5.78;;;2.30;99.90;;;;;;4987333;28;20050;-65
2022/11/26 05:07:59;;;;;;;7.38;5.75;;;2.30;99.90;;;;;;4985994;28;20776;-65
2022/11/26 05:10:26;;;;;;;7.30;5.88;;;2.30;99.90;;;;;;4986858;28;20056;-68
2022/11/26 05:12:53;;;;;;;7.25;5.60;;;2.30;99.90;;;;;;4986939;28;20045;-63
2022/11/26 05:15:20;;;;;;;8.00;6.05;;;2.40;99.90;;;;;;4986416;28;20052;-65
2022/11/26 05:17:47;;;;;;;7.15;5.63;;;2.30;99.90;;;;;;4986450;28;20137;-65
2022/11/26 05:20:14;;;;;;;6.90;5.95;;;2.30;99.90;;;;;;4978540;28;20404;-66
2022/11/26 05:22:41;;;;;;;7.57;5.70;;;2.30;99.90;;;;;;4983077;28;20050;-67
2022/11/26 05:25:10;;;;;;;6.28;5.43;;;2.30;99.90;;;;;;4984790;28;20073;-65
2022/11/26 05:27:37;;;;;;;6.22;5.28;;;2.30;99.90;;;;;;4985224;28;20117;-66
2022/11/26 05:30:06;;;;;;;8.55;5.93;;;2.30;99.90;;;;;;4981099;28;20065;-67
2022/11/26 05:32:33;;;;;;;6.57;6.03;;;2.30;99.90;;;;;;4994738;28;20057;-66
2022/11/26 05:35:00;;;;;;;9.80;6.55;;;2.30;99.90;;;;;;4981847;28;20069;-66
2022/11/26 05:37:27;;;;;;;7.82;7.03;;;2.30;99.90;;;;;;4985152;28;20057;-67
2022/11/26 05:39:53;;;;;;;8.00;6.72;;;2.30;99.90;;;;;;4984994;28;20050;-66
2022/11/26 05:42:20;;;;;;;8.05;7.25;;;2.30;99.90;;;;;;4987831;28;20084;-65
2022/11/26 05:44:47;;;;;;;6.75;5.85;;;2.30;99.90;;;;;;4990410;28;20050;-67
2022/11/26 05:47:14;;;;;;;10.15;6.38;;;2.30;99.90;;;;;;4998482;28;20038;-67
2022/11/26 05:49:41;;;;;;;7.40;6.50;;;2.30;99.90;;;;;;4984571;28;20041;-66
2022/11/26 05:52:08;;;;;;;6.63;5.93;;;2.30;99.90;;;;;;4983523;28;20062;-68
2022/11/26 05:54:35;;;;;;;7.03;5.75;;;2.30;99.90;;;;;;4985856;28;20173;-66
2022/11/26 05:57:02;;;;;;;9.52;6.75;;;2.30;99.90;;;;;;4987631;28;20188;-67
2022/11/26 05:59:29;;;;;;;6.82;5.82;;;2.30;99.90;;;;;;4982889;28;20079;-69
2022/11/26 06:01:56;;;;;;;7.18;6.05;;;2.30;99.90;;;;;;4986177;28;20050;-66
2022/11/26 06:04:23;;;;;;;7.47;5.95;;;2.30;99.90;;;;;;4985344;28;20073;-72
2022/11/26 06:06:50;;;;;;;7.13;6.00;;;2.30;99.90;;;;;;4987049;28;20077;-71
2022/11/26 06:09:17;;;;;;;8.23;6.45;;;2.30;99.90;;;;;;4980648;28;20452;-70
2022/11/26 06:11:44;;;;;;;7.05;6.43;;;2.30;99.90;;;;;;4986636;28;20513;-67
2022/11/26 06:14:11;;;;;;;6.38;5.47;;;2.30;99.90;;;;;;4991273;28;20411;-67
2022/11/26 06:16:38;;;;;;;7.70;5.45;;;2.30;99.90;;;;;;4987763;28;20457;-67
2022/11/26 06:19:05;;;;;;;5.85;4.85;;;2.30;99.90;;;;;;4988691;28;20050;-66
2022/11/26 06:21:32;;;;;;;6.88;5.50;;;2.30;99.90;;;;;;4983222;28;20077;-67
2022/11/26 06:23:59;;;;;;;6.15;5.25;;;2.30;99.90;;;;;;4986557;28;20134;-66
2022/11/26 06:26:26;;;;;;;5.90;5.32;;;2.30;99.90;;;;;;4988337;28;20475;-67
2022/11/26 06:28:53;;;;;;;6.05;4.90;;;2.30;99.90;;;;;;4988359;28;20042;-67
2022/11/26 06:31:20;;;;;;;7.32;6.53;;;2.20;99.90;;;;;;4985729;28;20081;-66
2022/11/26 06:33:47;;;;;;;6.22;5.55;;;2.30;99.90;;;;;;4990564;28;20072;-66
2022/11/26 06:36:13;;;;;;;8.85;5.30;;;2.30;99.90;;;;;;4987806;28;20061;-65
2022/11/26 06:38:40;;;;;;;8.65;7.03;;;2.30;99.90;;;;;;4988125;28;20410;-65
2022/11/26 06:41:08;;;;;;;6.90;5.88;;;2.30;99.90;;;;;;4991611;28;20054;-65
2022/11/26 06:43:35;;;;;;;7.35;6.35;;;2.30;99.90;;;;;;4980728;28;20431;-69
2022/11/26 06:46:08;;;;;;;8.15;6.93;;;2.30;99.90;;;;;;5003761;28;20077;-68
2022/11/26 06:48:36;;;;;;;8.07;6.50;;;2.30;99.90;;;;;;4988104;28;20070;-66
2022/11/26 06:51:06;;;;;;;8.95;6.78;;;2.30;99.90;;;;;;4984715;28;20136;-69
2022/11/26 06:53:33;;;;;;;8.32;7.25;;;2.30;99.90;;;;;;4980083;28;20054;-65
2022/11/26 06:56:02;;;;;;;8.93;7.53;;;2.30;99.90;;;;;;4988639;28;20070;-65
2022/11/26 06:58:29;;;;;;;8.77;6.90;;;2.30;99.90;;;;;;4983768;28;20081;-69
2022/11/26 07:00:56;;;;;;;10.18;8.70;;;2.30;99.90;;;;;;4986783;28;20050;-66
2022/11/26 07:03:24;;;;;;;10.07;7.75;;;2.30;99.90;;;;;;4993660;28;20124;-65
2022/11/26 07:05:59;;;;;;;9.80;7.22;;;2.30;99.90;;;;;;4984662;28;20058;-65
2022/11/26 07:08:25;;;;;;;7.18;6.35;;;2.30;99.90;;;;;;4985368;28;20145;-70
2022/11/26 07:10:52;;;;;;;8.18;6.93;;;2.30;99.90;;;;;;4986321;28;20070;-68
2022/11/26 07:13:19;;;;;;;8.23;7.38;;;2.30;99.90;;;;;;4986646;28;20064;-65
2022/11/26 07:15:46;;;;;;;8.85;7.05;;;2.30;99.90;;;;;;4987118;28;20153;-65
2022/11/26 07:18:13;;;;;;;9.02;7.00;;;2.30;99.90;;;;;;4985369;28;20065;-65
2022/11/26 07:20:40;;;;;;;8.75;7.40;;;2.30;99.90;;;;;;4980638;28;20077;-66
2022/11/26 07:23:07;;;;;;;10.00;7.60;;;2.30;99.90;;;;;;4985250;28;20111;-65
2022/11/26 07:25:35;;;;;;;8.10;7.28;;;2.30;99.90;;;;;;4979079;28;20346;-71
2022/11/26 07:28:02;;;;;;;9.98;6.95;;;2.30;99.90;;;;;;4987567;28;20049;-68
2022/11/26 07:30:29;;;;;;;8.38;6.13;;;2.40;99.90;;;;;;4980225;28;20484;-69
2022/11/26 07:32:56;;;;;;;8.80;6.97;;;2.40;99.90;;;;;;4989953;28;20092;-67
2022/11/26 07:35:23;;;;;;;7.68;6.80;;;2.40;99.90;;;;;;4987425;28;20056;-66
2022/11/26 07:37:50;;;;;;;10.88;7.63;;;2.40;99.90;;;;;;4984520;28;20054;-68
2022/11/26 07:40:17;;;;;;;10.73;7.85;;;2.40;99.90;;;;;;4985548;28;20460;-65
2022/11/26 07:42:44;;;;;;;9.70;8.60;;;2.40;99.90;;;;;;4979783;28;20065;-66
2022/11/26 07:45:19;;;;;;;10.35;8.15;;;2.40;99.90;;;;;;4996322;28;20680;-67
2022/11/26 07:47:46;;;;;;;8.68;7.22;;;2.40;99.90;;;;;;4985342;28;20459;-67
2022/11/26 07:50:13;;;;;;;9.38;7.55;;;2.50;99.90;;;;;;4984743;28;20144;-67
2022/11/26 07:52:41;;;;;;;8.88;6.85;;;2.50;99.90;;;;;;4981973;28;20048;-66
2022/11/26 07:55:08;;;;;;;9.50;6.85;;;2.50;99.90;;;;;;4992446;28;20449;-66
2022/11/26 07:57:38;;;;;;;;;;;2.50;99.90;;;;;;4982959;28;20064;-66
2022/11/26 08:00:06;;;;;;;8.50;6.38;;;2.50;99.90;;;;;;4985466;28;20249;-65
2022/11/26 08:02:37;;;;;;;9.05;7.97;;;2.50;99.90;;;;;;4985061;28;20553;-66
2022/11/26 08:05:05;;;;;;;6.53;5.82;;;2.50;99.90;;;;;;4983060;28;20049;-65
2022/11/26 08:07:33;;;;;;;7.50;6.70;;;2.50;99.90;;;;;;4984561;28;20421;-67
2022/11/26 08:10:00;;;;;;;7.20;6.50;;;2.60;99.90;;;;;;4984389;28;20153;-66
2022/11/26 08:12:26;;;;;;;7.28;6.28;;;2.60;99.90;;;;;;4979443;28;20042;-70
2022/11/26 08:14:53;;;;;;;8.35;7.43;;;2.60;99.90;;;;;;4980278;28;20050;-65
2022/11/26 08:17:20;;;;;;;8.95;7.00;;;2.60;99.90;;;;;;4987537;28;20072;-65
2022/11/26 08:19:47;;;;;;;8.55;6.95;;;2.60;99.90;;;;;;4983543;28;20059;-67
2022/11/26 08:22:14;;;;;;;7.75;6.32;;;2.70;99.90;;;;;;4995451;28;20051;-66
2022/11/26 08:24:41;;;;;;;9.98;7.88;;;2.70;99.90;;;;;;4986951;28;20076;-69
2022/11/26 08:27:08;;;;;;;9.75;8.75;;;2.70;99.90;;;;;;4985200;28;20674;-66
2022/11/26 08:29:35;;;;;;;14.95;12.15;;;2.70;99.90;;;;;;4986882;28;20137;-67
2022/11/26 08:32:03;;;;;;;16.27;12.18;;;2.70;99.90;;;;;;4983785;28;20504;-68
2022/11/26 08:34:30;;;;;;;16.67;12.98;;;2.70;99.90;;;;;;4980467;28;20046;-67
2022/11/26 08:36:57;;;;;;;13.90;10.60;;;2.80;99.90;;;;;;4984759;28;20762;-67
2022/11/26 08:39:24;;;;;;;12.38;9.57;;;2.80;99.90;;;;;;4990223;28;20468;-70
2022/11/26 08:41:50;;;;;;;11.55;9.40;;;2.80;99.90;;;;;;4983024;28;20129;-65
2022/11/26 08:44:19;;;;;;;11.32;9.57;;;2.80;99.90;;;;;;4987262;28;20100;-71
2022/11/26 08:46:46;;;;;;;10.88;8.93;;;2.90;99.90;;;;;;4987898;28;20616;-68
2022/11/26 08:49:13;;;;;;;12.13;9.52;;;2.90;99.90;;;;;;4987285;28;20141;-65
2022/11/26 08:51:42;;;;;;;11.10;9.77;;;2.90;99.90;;;;;;4986281;28;20045;-66
2022/11/26 08:54:10;;;;;;;10.88;8.93;;;2.90;99.90;;;;;;4988462;28;20082;-67
2022/11/26 08:56:36;;;;;;;11.40;8.45;;;2.90;99.90;;;;;;4984216;28;20042;-66
2022/11/26 08:59:03;;;;;;;14.35;10.98;;;3.00;99.90;;;;;;4991567;28;20053;-65
2022/11/26 09:01:32;;;;;;;12.55;10.85;;;2.90;99.90;;;;;;4998398;28;20082;-69
2022/11/26 09:04:01;;;;;;;12.25;10.95;;;3.00;99.90;;;;;;4987112;28;20591;-65
2022/11/26 09:06:29;;;;;;;12.85;10.40;;;2.90;99.90;;;;;;4985516;28;20045;-67
2022/11/26 09:09:13;;;;;;;10.68;9.57;;;3.00;99.90;;;;;;4989294;28;20120;-68
2022/11/26 09:11:49;;;;;;;10.95;9.05;;;3.00;99.90;;;;;;4992995;28;20116;-65
2022/11/26 09:14:18;;;;;;;12.50;9.57;;;3.10;99.90;;;;;;4988005;28;20046;-67
2022/11/26 09:16:46;;;;;;;9.85;8.82;;;3.10;99.90;;;;;;4980143;28;20050;-67
2022/11/26 09:19:14;;;;;;;9.32;8.13;;;3.10;99.90;;;;;;4990559;28;20134;-66
2022/11/26 09:21:41;;;;;;;9.15;8.23;;;3.10;99.90;;;;;;4987233;28;20096;-65
2022/11/26 09:24:08;;;;;;;8.30;7.43;;;3.20;99.90;;;;;;4988727;28;20050;-67
2022/11/26 09:26:35;;;;;;;7.88;6.80;;;3.20;99.90;;;;;;4988962;28;20073;-65
2022/11/26 09:29:03;;;;;;;9.68;7.43;;;3.20;99.90;;;;;;4988952;28;20133;-70
2022/11/26 09:31:30;;;;;;;7.43;6.50;;;3.20;99.90;;;;;;4983051;28;20388;-66
2022/11/26 09:33:58;;;;;;;9.60;8.05;;;3.20;99.90;;;;;;4984622;28;20050;-66
2022/11/26 09:36:26;;;;;;;9.55;8.00;;;3.30;99.90;;;;;;4986673;28;20054;-67
2022/11/26 09:38:54;;;;;;;7.53;6.82;;;3.30;99.90;;;;;;4991453;28;20655;-65
2022/11/26 09:41:46;;;;;;;7.45;6.55;;;3.30;99.90;;;;;;4987574;28;20121;-65
2022/11/26 09:44:25;;;;;;;8.45;7.15;;;3.40;99.90;;;;;;4987006;28;20050;-66
2022/11/26 09:46:55;;;;;;;7.82;7.13;;;3.40;99.90;;;;;;4985950;28;20042;-65
2022/11/26 09:50:09;;;;;;;7.82;7.05;;;3.40;99.90;;;;;;4984671;28;20093;-68
2022/11/26 09:52:42;;;;;;;6.63;6.03;;;3.40;99.90;;;;;;4983845;28;20134;-66
2022/11/26 09:55:17;;;;;;;6.55;5.85;;;3.50;99.90;;;;;;4989270;28;20475;-66
2022/11/26 09:58:02;;;;;;;7.95;5.88;;;3.50;99.90;;;;;;4990739;28;20050;-65
2022/11/26 10:00:53;;;;;;;7.97;7.15;;;3.50;99.90;;;;;;4986352;28;20464;-66
2022/11/26 10:03:23;;;;;;;7.97;5.63;;;3.60;99.90;;;;;;4982808;28;20050;-66
2022/11/26 10:06:14;;;;;;;6.13;5.22;;;3.60;99.90;;;;;;4986198;28;20061;-71
2022/11/26 10:09:06;;;;;;;5.68;5.18;;;3.60;99.90;;;;;;4986887;28;20134;-67
2022/11/26 10:11:48;;;;;;;4.95;4.53;;;3.60;99.90;;;;;;4993953;28;20060;-68
2022/11/26 10:14:34;;;;;;;5.32;4.22;;;3.60;99.90;;;;;;4986545;28;20050;-67
2022/11/26 10:17:36;;;;;;;4.40;3.88;;;3.70;99.90;;;;;;4983535;28;20538;-69
2022/11/26 10:20:40;;;;;;;4.10;3.65;;;3.70;99.90;;;;;;4987280;28;20531;-75
2022/11/26 10:23:21;;;;;;;5.40;3.70;;;3.70;99.90;;;;;;4986166;28;20137;-67
2022/11/26 10:25:49;;;;;;;5.13;3.85;;;3.80;99.90;;;;;;4990393;28;20066;-66
2022/11/26 10:28:21;;;;;;;4.03;3.60;;;3.80;99.90;;;;;;4999511;28;20061;-66
2022/11/26 10:31:13;;;;;;;4.75;4.20;;;3.90;99.90;;;;;;4987716;28;20042;-69
2022/11/26 10:34:01;;;;;;;4.65;4.10;;;3.90;99.90;;;;;;4985378;28;20122;-66
2022/11/26 10:36:35;;;;;;;5.78;4.53;;;3.90;99.90;;;;;;4979053;28;20042;-69
2022/11/26 10:39:03;;;;;;;5.75;5.05;;;3.90;99.90;;;;;;4987668;28;20053;-66
2022/11/26 10:41:34;;;;;;;4.47;4.07;;;3.90;99.90;;;;;;4984918;28;20054;-66
2022/11/26 10:44:28;;;;;;;11.18;4.72;;;4.00;99.90;;;;;;4990344;28;20523;-66
2022/11/26 10:46:56;;;;;;;5.18;4.68;;;4.00;99.90;;;;;;4987405;28;20050;-66
2022/11/26 10:49:25;;;;;;;5.95;5.35;;;4.00;99.90;;;;;;4984843;28;20056;-66
2022/11/26 10:51:57;;;;;;;4.85;4.15;;;4.00;99.90;;;;;;4985831;28;20043;-70
2022/11/26 10:54:31;;;;;;;5.50;5.00;;;4.00;99.90;;;;;;4982713;28;20097;-67
2022/11/26 10:57:14;;;;;;;4.57;3.97;;;4.00;99.90;;;;;;4989658;28;20137;-69
2022/11/26 10:59:48;;;;;;;5.15;4.65;;;4.10;99.90;;;;;;4988749;28;20081;-65
2022/11/26 11:02:27;;;;;;;5.93;4.70;;;4.10;99.90;;;;;;4988377;28;20054;-66
2022/11/26 11:04:56;;;;;;;5.63;4.13;;;4.20;99.90;;;;;;4983401;28;20045;-66
2022/11/26 11:07:32;;;;;;;5.40;4.20;;;4.20;99.90;;;;;;4988402;28;20058;-67
2022/11/26 11:10:08;;;;;;;3.88;3.53;;;4.20;99.90;;;;;;4986055;28;20132;-65
2022/11/26 11:12:39;;;;;;;5.95;4.47;;;4.20;99.90;;;;;;4985888;28;20056;-65
2022/11/26 11:15:25;;;;;;;;;;;4.20;99.90;;;;;;4986619;28;20046;-67
2022/11/26 11:18:11;;;;;;;3.80;3.50;;;4.20;99.90;;;;;;4988795;28;19972;-68
2022/11/26 11:20:42;;;;;;;4.93;4.22;;;4.20;99.90;;;;;;4984059;28;20068;-67
2022/11/26 11:23:09;;;;;;;5.35;4.25;;;4.30;99.90;;;;;;4987904;28;20050;-68
2022/11/26 11:25:38;;;;;;;5.25;4.30;;;4.30;99.90;;;;;;4987390;28;20112;-67
2022/11/26 11:28:15;;;;;;;4.95;3.58;;;4.30;99.90;;;;;;4987055;28;20152;-65
2022/11/26 11:30:43;;;;;;;5.15;4.65;;;4.30;99.90;;;;;;4984834;28;20116;-68
2022/11/26 11:33:17;;;;;;;4.93;4.43;;;4.30;99.90;;;;;;4985724;28;20050;-65
2022/11/26 11:35:55;;;;;;;5.80;4.88;;;4.40;99.90;;;;;;4982657;28;20047;-65
2022/11/26 11:38:24;;;;;;;4.93;4.40;;;4.40;99.90;;;;;;4985155;28;20145;-68
2022/11/26 11:40:51;;;;;;;6.00;4.80;;;4.40;99.90;;;;;;4983003;28;20042;-66
2022/11/26 11:43:21;;;;;;;4.97;4.10;;;4.50;99.90;;;;;;4986219;28;20046;-68
2022/11/26 11:46:10;;;;;;;5.38;4.85;;;4.40;99.90;;;;;;4990318;28;20407;-68
2022/11/26 11:48:47;;;;;;;5.53;4.97;;;4.40;99.90;;;;;;4981456;28;20133;-67
2022/11/26 11:51:43;;;;;;;5.68;4.72;;;4.50;99.90;;;;;;4981692;28;20412;-65
2022/11/26 11:54:28;;;;;;;5.28;4.80;;;4.50;99.90;;;;;;4990232;28;20060;-65
2022/11/26 11:57:39;;;;;;;5.25;4.75;;;4.50;99.90;;;;;;4980384;28;20058;-65
2022/11/26 12:00:17;;;;;;;5.70;5.07;;;4.50;99.90;;;;;;4984643;28;20137;-69
2022/11/26 12:02:51;;;;;;;6.35;5.32;;;4.50;99.90;;;;;;4982013;28;20164;-65
2022/11/26 12:05:44;;;;;;;5.65;4.78;;;4.50;99.90;;;;;;4984174;28;20047;-67
2022/11/26 12:08:34;;;;;;;4.38;3.97;;;4.60;99.90;;;;;;4988293;28;20070;-65
2022/11/26 12:11:08;;;;;;;;;;;4.50;99.90;;;;;;4980115;28;20564;-65
2022/11/26 12:13:45;;;;;;;5.68;4.82;;;4.50;99.90;;;;;;4982282;28;19926;-65
2022/11/26 12:16:14;;;;;;;4.75;4.35;;;4.50;99.90;;;;;;4986685;28;20052;-65
2022/11/26 12:18:44;;;;;;;4.95;4.45;;;4.50;99.90;;;;;;4981020;28;20073;-65
2022/11/26 12:21:13;;;;;;;6.03;4.68;;;4.60;99.90;;;;;;4984343;28;20080;-64
2022/11/26 12:23:51;;;;;;;4.60;4.20;;;4.60;99.90;;;;;;4981115;28;20077;-65
2022/11/26 12:26:27;;;;;;;3.92;3.63;;;4.60;99.90;;;;;;4986398;28;20089;-68
2022/11/26 12:29:31;;;;;;;4.03;3.00;;;4.50;99.90;;;;;;4980283;28;20400;-66
2022/11/26 12:32:10;;;;;;;4.15;3.50;;;4.50;99.90;;;;;;4986638;28;20112;-65
2022/11/26 12:34:53;;;;;;;7.30;3.80;;;4.50;99.90;;;;;;4985483;28;20137;-66
2022/11/26 12:37:35;;;;;;;5.00;3.28;;;4.50;99.90;;;;;;4983995;28;20051;-65
2022/11/26 12:40:26;;;;;;;4.72;4.32;;;4.50;99.90;;;;;;4986038;28;20132;-66
2022/11/26 12:43:24;;;;;;;3.72;3.42;;;4.50;99.90;;;;;;4984433;28;20049;-65
2022/11/26 12:46:01;;;;;;;4.47;4.10;;;4.50;99.90;;;;;;4987639;28;20387;-67
2022/11/26 12:48:48;;;;;;;3.75;3.45;;;4.50;99.90;;;;;;4984180;28;20109;-66
2022/11/26 12:51:37;;;;;;;5.25;4.07;;;4.50;99.90;;;;;;4982759;28;20154;-65
2022/11/26 12:54:10;;;;;;;4.30;3.80;;;4.50;99.90;;;;;;4979398;28;20208;-67
2022/11/26 12:56:57;;;;;;;6.03;3.58;;;4.50;99.90;;;;;;4976542;28;20389;-66
2022/11/26 12:59:32;;;;;;;4.72;3.95;;;4.50;99.90;;;;;;4980477;28;20045;-68
2022/11/26 13:02:13;;;;;;;4.38;3.97;;;4.50;99.90;;;;;;4986055;28;20876;-68
2022/11/26 13:04:40;;;;;;;;;;;4.50;99.90;;;;;;4981225;28;20268;-65
2022/11/26 13:07:16;;;;;;;4.45;3.70;;;4.50;99.90;;;;;;4982793;28;19941;-65
2022/11/26 13:10:02;;;;;;;4.53;4.13;;;4.50;99.90;;;;;;4987364;28;20054;-67
2022/11/26 13:12:54;;;;;;;5.00;4.50;;;4.50;99.90;;;;;;4983613;28;20097;-66
2022/11/26 13:15:40;;;;;;;4.90;4.22;;;4.40;99.90;;;;;;4981478;28;20054;-67
2022/11/26 13:18:22;;;;;;;4.35;3.95;;;4.40;99.90;;;;;;4984842;28;20109;-65
2022/11/26 13:21:01;;;;;;;5.00;4.03;;;4.40;99.90;;;;;;4980717;28;20153;-67
2022/11/26 13:23:51;;;;;;;5.22;4.50;;;4.40;99.90;;;;;;4984661;28;20046;-65